createdAt,value
2019-01-02T00:00:39.325Z,100.00
2019-01-02T00:03:12.266Z,100.00
2019-01-02T00:05:44.314Z,100.00
2019-01-02T00:08:15.822Z,100.00
2019-01-02T00:10:47.206Z,100.00
2019-01-02T00:13:18.633Z,100.00
2019-01-02T00:15:50.009Z,100.00
2019-01-02T00:18:22.643Z,100.00
2019-01-02T00:20:54.167Z,100.00
2019-01-02T00:23:25.848Z,100.00
2019-01-02T00:25:57.355Z,100.00
2019-01-02T00:28:28.751Z,100.00
2019-01-02T00:31:00.197Z,100.00
2019-01-02T00:33:31.846Z,100.00
2019-01-02T00:36:04.093Z,100.00
2019-01-02T00:38:35.440Z,100.00
2019-01-02T00:41:07.175Z,100.00
2019-01-02T00:43:39.018Z,100.00
2019-01-02T00:46:10.800Z,100.00
2019-01-02T00:48:42.398Z,100.00
2019-01-02T00:51:13.796Z,100.00
2019-01-02T00:53:45.306Z,100.00
2019-01-02T00:56:17.026Z,100.00
2019-01-02T00:58:48.620Z,100.00
2019-01-02T01:01:20.032Z,100.00
2019-01-02T01:03:51.891Z,100.00
2019-01-02T01:06:23.655Z,100.00
2019-01-02T01:08:55.046Z,100.00
2019-01-02T01:11:26.544Z,100.00
2019-01-02T01:13:58.455Z,100.00
2019-01-02T01:16:29.862Z,100.00
2019-01-02T01:19:01.563Z,100.00
2019-01-02T01:21:32.968Z,100.00
2019-01-02T01:24:05.584Z,100.00
2019-01-02T01:26:38.007Z,100.00
2019-01-02T01:29:09.532Z,100.00
2019-01-02T01:31:41.315Z,100.00
2019-01-02T01:34:12.714Z,100.00
2019-01-02T01:36:44.088Z,100.00
2019-01-02T01:39:15.649Z,100.00
2019-01-02T01:41:47.153Z,100.00
2019-01-02T01:44:18.519Z,100.00
2019-01-02T01:46:49.930Z,100.00
2019-01-02T01:49:21.331Z,100.00
2019-01-02T01:51:53.303Z,100.00
2019-01-02T01:54:24.740Z,100.00
2019-01-02T01:56:56.175Z,100.00
2019-01-02T01:59:27.935Z,100.00
2019-01-02T02:01:59.686Z,100.00
2019-01-02T02:04:31.047Z,100.00
2019-01-02T02:07:02.880Z,100.00
2019-01-02T02:09:34.653Z,100.00
2019-01-02T02:12:06.203Z,100.00
2019-01-02T02:14:38.845Z,100.00
2019-01-02T02:17:10.355Z,100.00
2019-01-02T02:19:41.846Z,100.00
2019-01-02T02:22:13.501Z,100.00
2019-01-02T02:24:45.970Z,100.00
2019-01-02T02:27:17.755Z,100.00
2019-01-02T02:29:49.161Z,100.00
2019-01-02T02:32:20.559Z,100.00
2019-01-02T02:34:51.948Z,100.00
2019-01-02T02:37:23.355Z,100.00
2019-01-02T02:39:54.747Z,100.00
2019-01-02T02:42:26.156Z,100.00
2019-01-02T02:44:57.962Z,100.00
2019-01-02T02:47:29.749Z,100.00
2019-01-02T02:50:01.476Z,100.00
2019-01-02T02:52:32.880Z,100.00
2019-01-02T02:55:04.302Z,100.00
2019-01-02T02:57:35.671Z,100.00
2019-01-02T03:00:10.965Z,100.00
2019-01-02T03:02:42.539Z,100.00
2019-01-02T03:05:15.192Z,100.00
2019-01-02T03:07:47.092Z,100.00
2019-01-02T03:10:18.819Z,100.00
2019-01-02T03:12:51.162Z,100.00
2019-01-02T03:15:22.852Z,100.00
2019-01-02T03:17:54.247Z,100.00
2019-01-02T03:20:25.655Z,100.00
2019-01-02T03:22:57.080Z,100.00
2019-01-02T03:25:28.748Z,100.00
2019-01-02T03:28:00.720Z,100.00
2019-01-02T03:30:32.500Z,100.00
2019-01-02T03:33:04.631Z,100.00
2019-01-02T03:35:35.987Z,100.00
2019-01-02T03:38:07.405Z,100.00
2019-01-02T03:40:39.067Z,100.00
2019-01-02T03:43:10.828Z,100.00
2019-01-02T03:45:42.306Z,100.00
2019-01-02T03:48:13.782Z,100.00
2019-01-02T03:50:45.228Z,100.00
2019-01-02T03:53:16.615Z,100.00
2019-01-02T03:55:48.168Z,100.00
2019-01-02T03:58:19.616Z,100.00
2019-01-02T04:00:51.017Z,100.00
2019-01-02T04:03:22.439Z,100.00
2019-01-02T04:05:54.921Z,100.00
2019-01-02T04:08:27.228Z,100.00
2019-01-02T04:10:58.713Z,100.00
2019-01-02T04:13:30.106Z,100.00
2019-01-02T04:16:01.472Z,100.00
2019-01-02T04:18:32.870Z,100.00
2019-01-02T04:21:06.248Z,100.00
2019-01-02T04:23:37.625Z,100.00
2019-01-02T04:26:09.006Z,100.00
2019-01-02T04:28:40.519Z,100.00
2019-01-02T04:31:12.184Z,100.00
2019-01-02T04:33:43.631Z,100.00
2019-01-02T04:36:15.802Z,100.00
2019-01-02T04:38:47.352Z,100.00
2019-01-02T04:41:18.853Z,100.00
2019-01-02T04:43:50.251Z,100.00
2019-01-02T04:46:21.654Z,100.00
2019-01-02T04:48:53.048Z,100.00
2019-01-02T04:51:24.443Z,100.00
2019-01-02T04:53:55.856Z,100.00
2019-01-02T04:56:27.238Z,100.00
2019-01-02T04:58:59.560Z,100.00
2019-01-02T05:01:30.968Z,100.00
2019-01-02T05:04:02.522Z,100.00
2019-01-02T05:06:33.864Z,100.00
2019-01-02T05:09:07.096Z,100.00
2019-01-02T05:11:39.428Z,100.00
2019-01-02T05:14:10.943Z,100.00
2019-01-02T05:16:42.367Z,100.00
2019-01-02T05:19:13.782Z,100.00
2019-01-02T05:21:45.582Z,100.00
2019-01-02T05:24:17.268Z,100.00
2019-01-02T05:26:48.799Z,100.00
2019-01-02T05:29:20.580Z,100.00
2019-01-02T05:31:52.042Z,100.00
2019-01-02T05:34:23.490Z,100.00
2019-01-02T05:36:55.242Z,100.00
2019-01-02T05:39:26.786Z,100.00
2019-01-02T05:42:00.623Z,100.00
2019-01-02T05:44:32.039Z,100.00
2019-01-02T05:47:03.803Z,100.00
2019-01-02T05:49:35.250Z,100.00
2019-01-02T05:52:06.972Z,100.00
2019-01-02T05:54:38.353Z,100.00
2019-01-02T05:57:10.028Z,100.00
2019-01-02T05:59:41.833Z,100.00
2019-01-02T06:02:13.539Z,100.00
2019-01-02T06:04:45.654Z,100.00
2019-01-02T06:07:17.195Z,100.00
2019-01-02T06:09:48.638Z,100.00
2019-01-02T06:12:20.374Z,100.00
2019-01-02T06:14:52.045Z,100.00
2019-01-02T06:17:23.488Z,100.00
2019-01-02T06:19:55.257Z,100.00
2019-01-02T06:22:26.659Z,100.00
2019-01-02T06:25:00.820Z,100.00
2019-01-02T06:27:32.183Z,100.00
2019-01-02T06:30:03.599Z,100.00
2019-01-02T06:32:35.003Z,100.00
2019-01-02T06:35:06.888Z,100.00
2019-01-02T06:37:38.306Z,100.00
2019-01-02T06:40:11.913Z,100.00
2019-01-02T06:42:43.319Z,100.00
2019-01-02T06:45:16.831Z,100.00
2019-01-02T06:47:48.836Z,100.00
2019-01-02T06:50:23.105Z,100.00
2019-01-02T06:52:54.851Z,100.00
2019-01-02T06:55:26.254Z,100.00
2019-01-02T06:57:57.953Z,100.00
2019-01-02T07:00:34.790Z,100.00
2019-01-02T07:03:06.155Z,100.00
2019-01-02T07:05:37.604Z,100.00
2019-01-02T07:08:09.289Z,100.00
2019-01-02T07:10:40.762Z,100.00
2019-01-02T07:13:12.689Z,100.00
2019-01-02T07:15:44.298Z,100.00
2019-01-02T07:18:15.980Z,100.00
2019-01-02T07:20:47.555Z,100.00
2019-01-02T07:23:19.294Z,100.00
2019-01-02T07:25:51.097Z,100.00
2019-01-02T07:28:22.507Z,100.00
2019-01-02T07:30:53.969Z,100.00
2019-01-02T07:33:38.271Z,100.00
2019-01-02T07:36:56.804Z,100.00
2019-01-02T07:40:14.677Z,100.00
2019-01-02T07:43:51.544Z,100.00
2019-01-02T07:46:58.616Z,100.00
2019-01-02T07:50:10.821Z,100.00
2019-01-02T07:53:31.958Z,100.00
2019-01-02T07:56:37.036Z,100.00
2019-01-02T07:59:39.804Z,100.00
2019-01-02T08:02:48.037Z,100.00
2019-01-02T08:05:42.976Z,100.00
2019-01-02T08:08:45.782Z,100.00
2019-01-02T08:11:48.436Z,100.00
2019-01-02T08:15:02.874Z,100.00
2019-01-02T08:17:54.127Z,100.00
2019-01-02T08:21:19.186Z,100.00
2019-01-02T08:24:44.554Z,100.00
2019-01-02T08:27:51.388Z,100.00
2019-01-02T08:31:11.381Z,100.00
2019-01-02T08:34:35.185Z,100.00
2019-01-02T08:37:38.886Z,100.00
2019-01-02T08:40:54.172Z,100.00
2019-01-02T08:44:11.650Z,100.00
2019-01-02T08:47:22.153Z,100.00
2019-01-02T08:50:22.766Z,100.00
2019-01-02T08:53:25.129Z,100.00
2019-01-02T08:56:30.371Z,100.00
2019-01-02T08:59:48.046Z,100.00
2019-01-02T09:03:02.184Z,100.00
2019-01-02T09:05:58.541Z,100.00
2019-01-02T09:09:11.002Z,99.96
2019-01-02T09:12:29.418Z,98.79
2019-01-02T09:16:09.443Z,98.54
2019-01-02T09:19:01.435Z,99.12
2019-01-02T09:22:20.318Z,93.79
2019-01-02T09:25:35.993Z,93.71
2019-01-02T09:28:47.133Z,91.79
2019-01-02T09:31:48.762Z,92.24
2019-01-02T09:34:59.642Z,93.28
2019-01-02T09:37:52.378Z,89.95
2019-01-02T09:41:19.808Z,88.72
2019-01-02T09:44:23.959Z,89.91
2019-01-02T09:47:41.192Z,90.07
2019-01-02T09:50:37.701Z,87.33
2019-01-02T09:53:47.030Z,86.39
2019-01-02T09:56:47.065Z,87.50
2019-01-02T10:00:01.660Z,84.13
2019-01-02T10:03:11.962Z,82.88
2019-01-02T10:06:26.347Z,86.36
2019-01-02T10:09:41.583Z,83.82
2019-01-02T10:12:41.086Z,81.47
2019-01-02T10:15:45.660Z,81.81
2019-01-02T10:18:39.538Z,82.00
2019-01-02T10:21:44.079Z,79.49
2019-01-02T10:24:29.566Z,81.97
2019-01-02T10:27:47.881Z,78.80
2019-01-02T10:30:50.718Z,77.25
2019-01-02T10:33:59.374Z,76.98
2019-01-02T10:37:06.115Z,75.81
2019-01-02T10:40:04.964Z,75.56
2019-01-02T10:43:05.328Z,77.44
2019-01-02T10:46:27.733Z,75.55
2019-01-02T10:49:54.256Z,72.84
2019-01-02T10:53:06.514Z,72.50
2019-01-02T10:56:15.975Z,71.88
2019-01-02T10:59:24.275Z,72.77
2019-01-02T11:02:38.777Z,72.66
2019-01-02T11:06:01.017Z,73.34
2019-01-02T11:08:56.726Z,70.67
2019-01-02T11:12:20.925Z,71.14
2019-01-02T11:15:20.392Z,71.12
2019-01-02T11:18:07.418Z,71.31
2019-01-02T11:21:17.134Z,70.10
2019-01-02T11:24:25.479Z,70.02
2019-01-02T11:27:50.821Z,70.50
2019-01-02T11:31:12.690Z,69.98
2019-01-02T11:34:35.533Z,70.63
2019-01-02T11:37:31.686Z,70.82
2019-01-02T11:40:52.115Z,69.83
2019-01-02T11:44:21.206Z,69.43
2019-01-02T11:46:48.711Z,67.18
2019-01-02T11:49:20.480Z,68.34
2019-01-02T11:51:51.993Z,69.14
2019-01-02T11:54:23.463Z,70.45
2019-01-02T11:56:54.879Z,69.83
2019-01-02T11:59:26.476Z,69.61
2019-01-02T12:01:57.994Z,70.44
2019-01-02T12:04:29.407Z,70.32
2019-01-02T12:07:01.254Z,72.17
2019-01-02T12:09:32.703Z,73.12
2019-01-02T12:12:04.317Z,72.24
2019-01-02T12:14:35.739Z,72.63
2019-01-02T12:17:07.101Z,73.20
2019-01-02T12:19:38.630Z,74.09
2019-01-02T12:22:10.049Z,75.14
2019-01-02T12:24:41.475Z,75.37
2019-01-02T12:27:12.969Z,74.62
2019-01-02T12:29:44.452Z,71.86
2019-01-02T12:32:15.865Z,71.44
2019-01-02T12:34:47.309Z,70.77
2019-01-02T12:37:18.802Z,71.17
2019-01-02T12:39:50.173Z,71.75
2019-01-02T12:42:21.562Z,69.92
2019-01-02T12:44:52.987Z,70.04
2019-01-02T12:47:24.504Z,68.43
2019-01-02T12:49:55.879Z,68.00
2019-01-02T12:52:27.478Z,67.63
2019-01-02T12:54:58.925Z,67.60
2019-01-02T12:57:30.753Z,70.58
2019-01-02T13:00:02.128Z,69.36
2019-01-02T13:03:10.966Z,67.39
2019-01-02T13:06:26.488Z,66.57
2019-01-02T13:09:51.050Z,65.96
2019-01-02T13:12:51.065Z,64.96
2019-01-02T13:16:27.666Z,64.56
2019-01-02T13:19:40.195Z,65.05
2019-01-02T13:23:17.089Z,62.59
2019-01-02T13:26:03.862Z,63.32
2019-01-02T13:29:10.150Z,62.84
2019-01-02T13:32:43.899Z,62.71
2019-01-02T13:35:48.410Z,63.46
2019-01-02T13:38:35.584Z,65.16
2019-01-02T13:41:43.426Z,63.05
2019-01-02T13:44:47.420Z,63.65
2019-01-02T13:48:33.789Z,62.21
2019-01-02T13:51:12.251Z,63.51
2019-01-02T13:53:44.670Z,63.07
2019-01-02T13:56:19.377Z,61.47
2019-01-02T13:58:50.814Z,60.97
2019-01-02T14:01:22.262Z,60.63
2019-01-02T14:03:56.675Z,60.62
2019-01-02T14:06:28.094Z,60.21
2019-01-02T14:08:59.487Z,61.41
2019-01-02T14:11:30.899Z,62.19
2019-01-02T14:14:02.326Z,60.63
2019-01-02T14:16:34.819Z,61.87
2019-01-02T14:19:06.236Z,61.83
2019-01-02T14:21:37.661Z,62.71
2019-01-02T14:24:09.049Z,63.71
2019-01-02T14:26:40.489Z,65.02
2019-01-02T14:29:11.910Z,64.31
2019-01-02T14:31:43.255Z,64.92
2019-01-02T14:34:14.661Z,65.39
2019-01-02T14:36:46.117Z,64.91
2019-01-02T14:39:17.467Z,66.43
2019-01-02T14:41:48.936Z,67.43
2019-01-02T14:44:20.394Z,66.39
2019-01-02T14:46:52.075Z,68.00
2019-01-02T14:49:23.795Z,69.54
2019-01-02T14:51:55.653Z,68.48
2019-01-02T14:54:27.111Z,65.91
2019-01-02T14:56:58.561Z,66.63
2019-01-02T14:59:30.320Z,67.49
2019-01-02T15:02:01.698Z,66.78
2019-01-02T15:04:33.103Z,68.29
2019-01-02T15:07:04.495Z,69.16
2019-01-02T15:09:35.894Z,70.51
2019-01-02T15:12:07.303Z,71.02
2019-01-02T15:14:38.709Z,72.19
2019-01-02T15:17:10.099Z,73.26
2019-01-02T15:19:41.541Z,74.73
2019-01-02T15:22:12.891Z,74.63
2019-01-02T15:24:49.440Z,76.22
2019-01-02T15:27:17.448Z,75.82
2019-01-02T15:29:49.238Z,75.97
2019-01-02T15:32:20.933Z,75.46
2019-01-02T15:34:52.361Z,75.81
2019-01-02T15:37:23.775Z,75.74
2019-01-02T15:39:55.204Z,75.43
2019-01-02T15:42:26.550Z,74.85
2019-01-02T15:45:01.081Z,76.26
2019-01-02T15:47:32.419Z,76.18
2019-01-02T15:50:04.351Z,78.08
2019-01-02T15:52:35.897Z,77.74
2019-01-02T15:55:08.018Z,78.52
2019-01-02T15:57:39.357Z,79.80
2019-01-02T16:00:13.628Z,81.35
2019-01-02T16:02:45.028Z,83.24
2019-01-02T16:05:16.425Z,84.36
2019-01-02T16:07:48.075Z,85.65
2019-01-02T16:10:19.444Z,86.17
2019-01-02T16:12:50.840Z,86.60
2019-01-02T16:15:22.619Z,86.83
2019-01-02T16:17:54.411Z,87.06
2019-01-02T16:20:25.885Z,87.95
2019-01-02T16:22:57.761Z,89.22
2019-01-02T16:25:29.690Z,91.95
2019-01-02T16:28:01.274Z,93.37
2019-01-02T16:30:33.058Z,92.84
2019-01-02T16:33:04.595Z,90.93
2019-01-02T16:35:36.331Z,89.86
2019-01-02T16:38:07.720Z,90.72
2019-01-02T16:40:39.208Z,90.97
2019-01-02T16:43:11.035Z,89.94
2019-01-02T16:45:42.551Z,90.25
2019-01-02T16:48:14.918Z,90.35
2019-01-02T16:50:46.558Z,89.64
2019-01-02T16:53:17.903Z,88.18
2019-01-02T16:55:49.363Z,86.36
2019-01-02T16:58:20.857Z,86.40
2019-01-02T17:00:52.457Z,86.65
2019-01-02T17:03:24.357Z,87.29
2019-01-02T17:05:56.415Z,86.57
2019-01-02T17:08:28.086Z,87.50
2019-01-02T17:10:59.511Z,88.27
2019-01-02T17:13:30.913Z,88.45
2019-01-02T17:16:02.698Z,88.49
2019-01-02T17:18:34.093Z,90.37
2019-01-02T17:21:05.640Z,91.84
2019-01-02T17:23:39.111Z,92.64
2019-01-02T17:26:10.898Z,92.94
2019-01-02T17:28:45.192Z,93.79
2019-01-02T17:31:16.989Z,94.35
2019-01-02T17:33:48.435Z,94.87
2019-01-02T17:36:19.922Z,95.62
2019-01-02T17:38:51.665Z,97.28
2019-01-02T17:41:34.417Z,97.56
2019-01-02T17:44:05.849Z,97.43
2019-01-02T17:46:37.457Z,97.14
2019-01-02T17:49:10.016Z,96.64
2019-01-02T17:51:41.681Z,96.58
2019-01-02T17:54:14.031Z,94.78
2019-01-02T17:56:45.675Z,92.00
2019-01-02T17:59:17.498Z,91.97
2019-01-02T18:01:49.178Z,93.29
2019-01-02T18:04:20.603Z,94.09
2019-01-02T18:06:52.207Z,94.11
2019-01-02T18:09:24.182Z,92.66
2019-01-02T18:11:55.951Z,92.54
2019-01-02T18:14:27.417Z,92.59
2019-01-02T18:16:58.866Z,92.49
2019-01-02T18:19:30.670Z,93.51
2019-01-02T18:22:02.320Z,93.35
2019-01-02T18:24:33.844Z,94.58
2019-01-02T18:27:05.571Z,95.21
2019-01-02T18:29:36.983Z,94.97
2019-01-02T18:32:09.187Z,93.99
2019-01-02T18:34:40.606Z,91.66
2019-01-02T18:37:12.498Z,91.12
2019-01-02T18:39:43.965Z,92.71
2019-01-02T18:42:15.616Z,93.92
2019-01-02T18:44:47.287Z,93.77
2019-01-02T18:47:19.223Z,93.72
2019-01-02T18:49:50.734Z,94.12
2019-01-02T18:52:22.364Z,94.17
2019-01-02T18:54:54.222Z,95.50
2019-01-02T18:57:25.783Z,95.84
2019-01-02T18:59:57.348Z,96.59
2019-01-02T19:02:28.748Z,96.71
2019-01-02T19:05:00.596Z,96.85
2019-01-02T19:07:33.531Z,97.58
2019-01-02T19:10:05.265Z,98.41
2019-01-02T19:12:36.638Z,99.37
2019-01-02T19:15:09.302Z,99.51
2019-01-02T19:17:41.048Z,100.00
2019-01-02T19:20:12.641Z,100.00
2019-01-02T19:22:44.059Z,100.00
2019-01-02T19:25:15.537Z,100.00
2019-01-02T19:27:47.432Z,100.00
2019-01-02T19:30:18.799Z,100.00
2019-01-02T19:32:51.868Z,100.00
2019-01-02T19:35:23.268Z,100.00
2019-01-02T19:37:54.759Z,100.00
2019-01-02T19:40:26.209Z,100.00
2019-01-02T19:42:58.354Z,100.00
2019-01-02T19:45:31.509Z,99.25
2019-01-02T19:48:03.080Z,99.14
2019-01-02T19:50:35.003Z,99.48
2019-01-02T19:53:06.376Z,100.00
2019-01-02T19:55:38.726Z,100.00
2019-01-02T19:58:10.272Z,100.00
2019-01-02T20:00:41.722Z,100.00
2019-01-02T20:03:13.065Z,100.00
2019-01-02T20:05:44.679Z,100.00
2019-01-02T20:08:16.599Z,100.00
2019-01-02T20:10:47.929Z,100.00
2019-01-02T20:13:19.652Z,100.00
2019-01-02T20:15:51.452Z,100.00
2019-01-02T20:18:22.799Z,100.00
2019-01-02T20:20:54.454Z,100.00
2019-01-02T20:23:25.816Z,100.00
2019-01-02T20:25:57.479Z,100.00
2019-01-02T20:28:29.160Z,100.00
2019-01-02T20:31:01.575Z,100.00
2019-01-02T20:33:33.074Z,100.00
2019-01-02T20:36:04.476Z,100.00
2019-01-02T20:38:35.931Z,100.00
2019-01-02T20:41:07.357Z,100.00
2019-01-02T20:43:38.883Z,100.00
2019-01-02T20:46:11.763Z,100.00
2019-01-02T20:48:43.183Z,100.00
2019-01-02T20:51:14.657Z,100.00
2019-01-02T20:53:46.168Z,100.00
2019-01-02T20:56:18.103Z,100.00
2019-01-02T20:58:49.629Z,100.00
2019-01-02T21:01:21.082Z,100.00
2019-01-02T21:03:52.519Z,100.00
2019-01-02T21:06:23.956Z,100.00
2019-01-02T21:08:55.349Z,100.00
2019-01-02T21:11:26.883Z,100.00
2019-01-02T21:13:58.325Z,100.00
2019-01-02T21:16:29.760Z,100.00
2019-01-02T21:19:01.108Z,100.00
2019-01-02T21:21:32.582Z,100.00
2019-01-02T21:24:04.151Z,100.00
2019-01-02T21:26:35.920Z,100.00
2019-01-02T21:29:07.875Z,100.00
2019-01-02T21:31:39.371Z,100.00
2019-01-02T21:34:10.726Z,100.00
2019-01-02T21:36:42.191Z,100.00
2019-01-02T21:39:13.886Z,100.00
2019-01-02T21:41:45.303Z,100.00
2019-01-02T21:44:16.753Z,100.00
2019-01-02T21:46:48.780Z,100.00
2019-01-02T21:49:21.905Z,100.00
2019-01-02T21:51:53.416Z,100.00
2019-01-02T21:54:24.816Z,100.00
2019-01-02T21:56:56.289Z,100.00
2019-01-02T21:59:27.659Z,100.00
2019-01-02T22:01:59.116Z,100.00
2019-01-02T22:04:30.523Z,100.00
2019-01-02T22:07:01.962Z,100.00
2019-01-02T22:09:33.339Z,100.00
2019-01-02T22:12:04.811Z,100.00
2019-01-02T22:14:36.244Z,100.00
2019-01-02T22:17:07.681Z,100.00
2019-01-02T22:19:40.219Z,100.00
2019-01-02T22:22:11.608Z,100.00
2019-01-02T22:24:43.371Z,100.00
2019-01-02T22:27:14.808Z,100.00
2019-01-02T22:29:46.151Z,100.00
2019-01-02T22:32:17.675Z,100.00
2019-01-02T22:34:49.368Z,100.00
2019-01-02T22:37:20.928Z,100.00
2019-01-02T22:39:52.327Z,100.00
2019-01-02T22:42:23.685Z,100.00
2019-01-02T22:44:55.511Z,100.00
2019-01-02T22:47:28.009Z,100.00
2019-01-02T22:49:59.812Z,100.00
2019-01-02T22:52:31.249Z,100.00
2019-01-02T22:55:03.022Z,100.00
2019-01-02T22:57:34.455Z,100.00
2019-01-02T23:00:11.944Z,100.00
2019-01-02T23:03:01.432Z,100.00
2019-01-02T23:05:49.579Z,100.00
2019-01-02T23:08:39.982Z,100.00
2019-01-02T23:11:38.492Z,100.00
2019-01-02T23:14:38.346Z,100.00
2019-01-02T23:17:27.346Z,100.00
2019-01-02T23:20:21.830Z,100.00
2019-01-02T23:23:14.559Z,100.00
2019-01-02T23:26:11.079Z,100.00
2019-01-02T23:32:01.321Z,100.00
2019-01-02T23:34:50.560Z,100.00
2019-01-02T23:37:53.266Z,100.00
2019-01-02T23:40:43.635Z,100.00
2019-01-02T23:43:40.154Z,100.00
2019-01-02T23:46:30.528Z,100.00
2019-01-02T23:49:26.533Z,100.00
2019-01-02T23:52:25.980Z,100.00
2019-01-02T23:55:15.415Z,100.00
2019-01-02T23:58:04.326Z,100.00
